Time;durP1;ratioP1;P1;durP2;ratioP2;P2;SDS_P1;SDS_P2;PMS_P1;PMS_P2;Temp;Humidity;BMP_temperature;BMP_pressure;BME280_temperature;BME280_humidity;BME280_pressure;Samples;Min_cycle;Max_cycle;Signal;HPM_P1;HPM_P2
2022/05/14 00:01:33;;;;;;;;;;;;;;;10.87;100.00;101952.72;2611801;36;20049;-49
2022/05/14 00:04:01;;;;;;;;;;;;;;;10.84;100.00;101952.94;2613308;36;20371;-51
2022/05/14 00:06:30;;;;;;;;;;;;;;;10.88;100.00;101942.81;2612043;36;20558;-50
2022/05/14 00:09:01;;;;;;;;;;;;;;;10.87;100.00;101944.63;2612738;36;19972;-54
2022/05/14 00:14:11;;;;;;;;;;;;;;;10.69;100.00;101935.19;2612228;36;19947;-51
2022/05/14 00:16:41;;;;;;;;;;;;;;;10.55;100.00;101941.56;2613010;36;20440;-53
2022/05/14 00:19:10;;;;;;;;;;;;;;;10.57;100.00;101944.13;2612890;36;20042;-50
2022/05/14 00:21:39;;;;;;;;;;;;;;;10.58;100.00;101937.78;2612127;36;20042;-52
2022/05/14 00:24:07;;;;;;;;;;;;;;;10.44;100.00;101936.94;2613010;31;19946;-51
2022/05/14 00:26:36;;;;;;;;;;;;;;;10.46;100.00;101943.06;2612175;36;20066;-49
2022/05/14 00:29:04;;;;;;;;;;;;;;;10.42;100.00;101936.19;2612918;36;20085;-49
2022/05/14 00:31:32;;;;;;;;;;;;;;;10.38;100.00;101934.69;2610569;36;20053;-52
2022/05/14 00:34:03;;;;;;;;;;;;;;;10.28;100.00;101931.75;2612085;36;19958;-50
2022/05/14 00:36:31;;;;;;;;;;;;;;;10.21;100.00;101940.38;2606869;36;20776;-51
2022/05/14 00:38:59;;;;;;;;;;;;;;;10.12;100.00;101945.41;2612609;36;19974;-50
2022/05/14 00:41:28;;;;;;;;;;;;;;;10.07;100.00;101936.81;2612013;36;19978;-49
2022/05/14 00:43:57;;;;;;;;;;;;;;;10.10;100.00;101946.47;2612070;36;20402;-50
2022/05/14 00:46:27;;;;;;;;;;;;;;;10.05;100.00;101938.72;2613153;36;20503;-48
2022/05/14 00:48:57;;;;;;;;;;;;;;;9.99;100.00;101944.53;2614513;36;20523;-49
2022/05/14 00:51:29;;;;;;;;;;;;;;;10.08;100.00;101937.66;2614304;31;19946;-51
2022/05/14 00:54:00;;;;;;;;;;;;;;;10.10;100.00;101931.22;2614403;36;20049;-50
2022/05/14 00:56:30;;;;;;;;;;;;;;;10.16;100.00;101946.06;2614172;31;19997;-51
2022/05/14 00:59:02;;;;;;;;;;;;;;;10.14;100.00;101938.13;2614832;36;20030;-50
2022/05/14 01:01:30;;;;;;;;;;;;;;;10.32;100.00;101946.72;2614361;36;20034;-51
2022/05/14 01:03:58;;;;;;;;;;;;;;;10.35;100.00;101945.69;2613751;36;20086;-53
2022/05/14 01:06:29;;;;;;;;;;;;;;;10.31;100.00;101949.53;2614261;36;19946;-50
2022/05/14 01:08:57;;;;;;;;;;;;;;;10.29;100.00;101951.44;2613898;31;20069;-53
2022/05/14 01:11:26;;;;;;;;;;;;;;;10.22;100.00;101947.44;2613651;36;19985;-50
2022/05/14 01:13:54;;;;;;;;;;;;;;;10.13;100.00;101957.91;2614418;31;19947;-49
2022/05/14 01:16:22;;;;;;;;;;;;;;;10.10;100.00;101947.34;2614243;31;19946;-53
2022/05/14 01:18:51;;;;;;;;;;;;;;;10.01;100.00;101956.03;2614422;36;19954;-51
2022/05/14 01:21:25;;;;;;;;;;;;;;;9.96;100.00;101955.50;2614059;36;19954;-55
2022/05/14 01:26:43;;;;;;;;;;;;;;;9.88;100.00;101964.09;2614331;36;19957;-50
2022/05/14 01:29:13;;;;;;;;;;;;;;;9.90;100.00;101966.69;2614847;36;20455;-51
2022/05/14 01:31:41;;;;;;;;;;;;;;;9.88;100.00;101965.91;2614316;31;20034;-52
2022/05/14 01:34:11;;;;;;;;;;;;;;;9.87;100.00;101966.91;2608988;31;19974;-52
2022/05/14 01:36:40;;;;;;;;;;;;;;;9.85;100.00;101963.44;2613979;36;20086;-53
2022/05/14 01:39:09;;;;;;;;;;;;;;;9.99;100.00;101966.91;2614397;36;20551;-52
2022/05/14 01:41:37;;;;;;;;;;;;;;;9.89;100.00;101963.13;2613941;36;20552;-52
2022/05/14 01:44:08;;;;;;;;;;;;;;;9.91;100.00;101973.78;2608034;36;20034;-51
2022/05/14 01:46:36;;;;;;;;;;;;;;;9.86;100.00;101968.72;2614471;31;20079;-52
2022/05/14 01:49:05;;;;;;;;;;;;;;;9.85;100.00;101971.50;2614065;36;20025;-53
2022/05/14 01:51:33;;;;;;;;;;;;;;;9.89;100.00;101970.34;2613962;36;20051;-52
2022/05/14 01:54:01;;;;;;;;;;;;;;;9.85;100.00;101979.56;2613815;31;19946;-50
2022/05/14 01:56:30;;;;;;;;;;;;;;;9.80;100.00;101972.69;2613682;31;20061;-50
2022/05/14 01:58:58;;;;;;;;;;;;;;;9.82;100.00;101975.28;2613707;36;20074;-53
2022/05/14 02:01:29;;;;;;;;;;;;;;;9.62;100.00;101973.94;2612699;36;20037;-53
2022/05/14 02:03:58;;;;;;;;;;;;;;;9.52;100.00;101988.94;2612793;36;19954;-50
2022/05/14 02:06:28;;;;;;;;;;;;;;;9.45;100.00;101983.97;2613519;31;20463;-50
2022/05/14 02:08:56;;;;;;;;;;;;;;;9.49;100.00;101981.09;2612934;36;19947;-52
2022/05/14 02:11:24;;;;;;;;;;;;;;;9.47;100.00;101982.03;2612625;31;20042;-50
2022/05/14 02:13:53;;;;;;;;;;;;;;;9.51;100.00;101981.84;2613309;36;19950;-52
2022/05/14 02:16:21;;;;;;;;;;;;;;;9.51;100.00;101977.34;2613268;36;20078;-50
2022/05/14 02:18:52;;;;;;;;;;;;;;;9.52;100.00;101983.56;2613205;36;20046;-51
2022/05/14 02:21:24;;;;;;;;;;;;;;;9.51;100.00;101987.19;2612533;36;20030;-50
2022/05/14 02:23:52;;;;;;;;;;;;;;;9.49;100.00;101981.09;2612830;36;19981;-52
2022/05/14 02:26:22;;;;;;;;;;;;;;;9.42;100.00;101989.56;2612756;36;20455;-50
2022/05/14 02:28:50;;;;;;;;;;;;;;;9.45;100.00;101994.72;2612897;36;19947;-49
2022/05/14 02:31:18;;;;;;;;;;;;;;;9.34;100.00;101980.28;2613182;36;19947;-50
2022/05/14 02:33:46;;;;;;;;;;;;;;;9.28;100.00;101978.84;2612850;36;19954;-50
2022/05/14 02:36:18;;;;;;;;;;;;;;;9.28;100.00;101976.16;2612932;36;19972;-49
2022/05/14 02:38:46;;;;;;;;;;;;;;;9.23;100.00;101989.00;2613590;31;20375;-51
2022/05/14 02:41:15;;;;;;;;;;;;;;;9.14;100.00;101990.47;2612704;31;19951;-51
2022/05/14 02:43:43;;;;;;;;;;;;;;;9.01;100.00;101984.16;2605700;36;20430;-50
2022/05/14 02:46:12;;;;;;;;;;;;;;;9.09;100.00;101998.81;2613773;31;19951;-51
2022/05/14 02:48:40;;;;;;;;;;;;;;;9.15;100.00;101983.28;2613152;36;20061;-49
2022/05/14 02:51:08;;;;;;;;;;;;;;;9.18;100.00;101981.25;2612596;36;19950;-49
2022/05/14 02:53:39;;;;;;;;;;;;;;;9.11;100.00;101979.94;2606460;36;20089;-52
2022/05/14 02:56:07;;;;;;;;;;;;;;;9.03;100.00;101980.44;2612899;36;19954;-49
2022/05/14 03:01:16;;;;;;;;;;;;;;;9.02;100.00;101989.44;2612998;36;19953;-52
2022/05/14 03:03:44;;;;;;;;;;;;;;;8.90;100.00;101993.75;2612663;36;19950;-53
2022/05/14 03:06:13;;;;;;;;;;;;;;;8.94;100.00;101989.06;2611514;36;20017;-50
2022/05/14 03:08:43;;;;;;;;;;;;;;;9.06;100.00;101993.66;2610757;31;20365;-54
2022/05/14 03:11:11;;;;;;;;;;;;;;;9.07;100.00;101999.91;2611911;36;20069;-50
2022/05/14 03:13:39;;;;;;;;;;;;;;;9.06;100.00;101998.19;2612318;31;20043;-49
2022/05/14 03:16:07;;;;;;;;;;;;;;;9.06;100.00;101993.66;2611883;36;19951;-50
2022/05/14 03:18:35;;;;;;;;;;;;;;;9.05;100.00;101985.69;2612947;36;20054;-53
2022/05/14 03:21:03;;;;;;;;;;;;;;;9.03;100.00;101988.47;2612519;36;20041;-52
2022/05/14 03:23:31;;;;;;;;;;;;;;;9.04;100.00;101994.69;2612728;36;20069;-51
2022/05/14 03:26:02;;;;;;;;;;;;;;;8.97;100.00;101991.56;2612297;36;19950;-56
2022/05/14 03:28:30;;;;;;;;;;;;;;;8.94;100.00;101989.06;2613185;36;20046;-51
2022/05/14 03:30:59;;;;;;;;;;;;;;;8.91;100.00;101997.34;2612848;36;20049;-51
2022/05/14 03:33:27;;;;;;;;;;;;;;;8.91;100.00;101986.59;2613026;36;19954;-49
2022/05/14 03:35:55;;;;;;;;;;;;;;;8.90;100.00;101987.53;2612858;31;20082;-51
2022/05/14 03:38:23;;;;;;;;;;;;;;;8.87;100.00;101988.59;2612512;36;20057;-50
2022/05/14 03:40:51;;;;;;;;;;;;;;;8.92;100.00;101988.28;2612415;36;20731;-49
2022/05/14 03:43:22;;;;;;;;;;;;;;;8.87;100.00;101993.09;2613207;31;20070;-50
2022/05/14 03:45:50;;;;;;;;;;;;;;;8.87;100.00;101988.59;2612690;36;20401;-49
2022/05/14 03:48:18;;;;;;;;;;;;;;;8.79;100.00;101992.72;2612931;36;20422;-51
2022/05/14 03:50:46;;;;;;;;;;;;;;;8.84;100.00;102006.72;2612900;36;20054;-50
2022/05/14 03:53:14;;;;;;;;;;;;;;;8.81;100.00;102004.25;2606509;36;19946;-48
2022/05/14 03:55:42;;;;;;;;;;;;;;;8.86;100.00;102008.38;2612140;36;20049;-49
2022/05/14 03:58:11;;;;;;;;;;;;;;;8.92;100.00;102005.28;2612531;36;20820;-51
2022/05/14 04:00:44;;;;;;;;;;;;;;;8.91;100.00;102000.00;2613686;31;19953;-52
2022/05/14 04:03:12;;;;;;;;;;;;;;;8.96;100.00;102000.56;2607569;31;19954;-52
2022/05/14 04:05:40;;;;;;;;;;;;;;;8.97;100.00;102005.00;2612491;36;20526;-50
2022/05/14 04:08:08;;;;;;;;;;;;;;;9.05;100.00;101996.44;2612559;31;20057;-51
2022/05/14 04:10:36;;;;;;;;;;;;;;;9.07;100.00;102013.34;2611900;36;19947;-52
2022/05/14 04:13:04;;;;;;;;;;;;;;;9.02;100.00;102016.28;2612490;36;20471;-48
2022/05/14 04:15:32;;;;;;;;;;;;;;;9.07;100.00;102024.94;2612996;36;20088;-50
2022/05/14 04:18:03;;;;;;;;;;;;;;;9.06;100.00;102020.50;2611552;36;19946;-49
2022/05/14 04:20:31;;;;;;;;;;;;;;;9.20;100.00;102021.44;2612726;31;20500;-48
2022/05/14 04:23:00;;;;;;;;;;;;;;;9.25;100.00;102020.19;2611544;36;19954;-49
2022/05/14 04:25:28;;;;;;;;;;;;;;;9.24;100.00;102023.84;2612280;36;20493;-49
2022/05/14 04:27:56;;;;;;;;;;;;;;;9.17;100.00;102032.38;2612868;36;20065;-49
2022/05/14 04:30:24;;;;;;;;;;;;;;;9.26;100.00;102027.31;2612462;36;20596;-48
2022/05/14 04:32:52;;;;;;;;;;;;;;;9.29;100.00;102026.25;2612844;36;19946;-48
2022/05/14 04:35:23;;;;;;;;;;;;;;;9.35;100.00;102031.22;2612602;36;19976;-51
2022/05/14 04:37:51;;;;;;;;;;;;;;;9.36;100.00;102032.06;2612538;36;20034;-51
2022/05/14 04:40:19;;;;;;;;;;;;;;;9.42;100.00;102035.25;2612251;36;19946;-50
2022/05/14 04:42:47;;;;;;;;;;;;;;;9.53;100.00;102039.06;2613048;36;20992;-49
2022/05/14 04:45:15;;;;;;;;;;;;;;;9.58;100.00;102034.22;2612230;36;20058;-50
2022/05/14 04:47:44;;;;;;;;;;;;;;;9.55;100.00;102032.59;2611880;36;20026;-53
2022/05/14 04:50:13;;;;;;;;;;;;;;;9.62;100.00;102036.59;2612649;31;20113;-49
2022/05/14 04:52:44;;;;;;;;;;;;;;;9.69;100.00;102039.75;2612383;36;20129;-49
2022/05/14 04:55:13;;;;;;;;;;;;;;;9.90;100.00;102042.00;2612540;36;19973;-49
2022/05/14 04:57:43;;;;;;;;;;;;;;;9.91;100.00;102051.75;2611653;36;20042;-49
2022/05/14 05:00:13;;;;;;;;;;;;;;;9.98;100.00;102042.31;2612418;31;19947;-50
2022/05/14 05:05:21;;;;;;;;;;;;;;;10.05;100.00;102048.16;2612120;36;19950;-49
2022/05/14 05:07:52;;;;;;;;;;;;;;;10.10;100.00;102048.69;2611925;36;19947;-49
2022/05/14 05:10:20;;;;;;;;;;;;;;;10.21;100.00;102050.69;2612178;36;20510;-53
2022/05/14 05:12:50;;;;;;;;;;;;;;;10.25;100.00;102054.91;2605374;36;19954;-49
2022/05/14 05:15:18;;;;;;;;;;;;;;;10.37;100.00;102051.38;2612428;36;20436;-50
2022/05/14 05:17:46;;;;;;;;;;;;;;;10.43;100.00;102055.47;2611618;36;20041;-53
2022/05/14 05:20:14;;;;;;;;;;;;;;;10.59;100.00;102055.28;2611203;31;20408;-50
2022/05/14 05:22:45;;;;;;;;;;;;;;;10.70;100.00;102044.59;2612273;54;20046;-49
2022/05/14 05:25:16;;;;;;;;;;;;;;;10.82;100.00;102046.47;2612008;36;20054;-49
2022/05/14 05:27:44;;;;;;;;;;;;;;;10.89;100.00;102063.03;2611968;36;20080;-52
2022/05/14 05:30:12;;;;;;;;;;;;;;;11.09;100.00;102064.31;2610281;31;20034;-51
2022/05/14 05:32:40;;;;;;;;;;;;;;;11.07;100.00;102066.25;2611329;36;19972;-51
2022/05/14 05:35:09;;;;;;;;;;;;;;;11.10;100.00;102068.75;2611994;36;20693;-50
2022/05/14 05:37:37;;;;;;;;;;;;;;;11.26;100.00;102056.84;2612380;36;20039;-50
2022/05/14 05:40:06;;;;;;;;;;;;;;;11.35;100.00;102069.63;2611714;36;19946;-54
2022/05/14 05:42:36;;;;;;;;;;;;;;;11.31;100.00;102073.56;2612537;36;20090;-53
2022/05/14 05:45:05;;;;;;;;;;;;;;;11.42;100.00;102070.06;2611922;36;20051;-52
2022/05/14 05:47:33;;;;;;;;;;;;;;;11.58;100.00;102076.91;2612564;36;20050;-53
2022/05/14 05:50:01;;;;;;;;;;;;;;;11.57;100.00;102080.59;2613001;36;20070;-52
2022/05/14 05:52:31;;;;;;;;;;;;;;;11.72;100.00;102086.69;2611816;36;20090;-54
2022/05/14 05:57:43;;;;;;;;;;;;;;;12.06;100.00;102088.75;2613759;36;20347;-50
2022/05/14 06:00:12;;;;;;;;;;;;;;;12.15;100.00;102087.19;2613389;36;20042;-50
2022/05/14 06:02:41;;;;;;;;;;;;;;;12.25;100.00;102089.06;2613442;36;20034;-51
2022/05/14 06:05:09;;;;;;;;;;;;;;;12.18;100.00;102095.91;2613288;36;19958;-52
2022/05/14 06:07:39;;;;;;;;;;;;;;;12.07;100.00;102095.84;2613440;36;20498;-50
2022/05/14 06:10:09;;;;;;;;;;;;;;;12.20;100.00;102102.03;2612836;36;19946;-52
2022/05/14 06:12:38;;;;;;;;;;;;;;;12.20;100.00;102093.94;2607157;36;20069;-52
2022/05/14 06:15:10;;;;;;;;;;;;;;;12.34;100.00;102106.41;2607026;36;19954;-51
2022/05/14 06:17:38;;;;;;;;;;;;;;;12.61;100.00;102095.28;2613469;31;19957;-52
2022/05/14 06:20:07;;;;;;;;;;;;;;;12.79;100.00;102093.03;2612330;36;20065;-50
2022/05/14 06:22:35;;;;;;;;;;;;;;;13.10;100.00;102095.13;2612513;36;20097;-52
2022/05/14 06:25:03;;;;;;;;;;;;;;;13.16;100.00;102097.31;2612301;36;20069;-55
2022/05/14 06:27:31;;;;;;;;;;;;;;;13.08;100.00;102103.34;2613278;36;20438;-54
2022/05/14 06:29:59;;;;;;;;;;;;;;;13.52;100.00;102103.50;2612742;36;19977;-51
2022/05/14 06:32:33;;;;;;;;;;;;;;;13.70;100.00;102094.88;2612615;36;20087;-55
2022/05/14 06:35:01;;;;;;;;;;;;;;;13.52;100.00;102100.81;2612408;36;19950;-54
2022/05/14 06:37:29;;;;;;;;;;;;;;;13.57;100.00;102105.84;2613976;31;19946;-51
2022/05/14 06:39:57;;;;;;;;;;;;;;;13.69;100.00;102101.25;2613145;36;20050;-54
2022/05/14 06:42:25;;;;;;;;;;;;;;;13.92;100.00;102097.50;2613116;36;20034;-51
2022/05/14 06:44:53;;;;;;;;;;;;;;;14.24;100.00;102103.94;2613430;36;19946;-51
2022/05/14 06:47:21;;;;;;;;;;;;;;;14.36;100.00;102111.84;2613486;36;19951;-55
2022/05/14 06:49:52;;;;;;;;;;;;;;;14.39;100.00;102108.03;2611972;36;19947;-50
2022/05/14 06:52:22;;;;;;;;;;;;;;;14.53;100.00;102101.44;2612120;36;20065;-49
2022/05/14 06:54:51;;;;;;;;;;;;;;;14.80;100.00;102094.66;2613153;36;20439;-49
2022/05/14 06:57:20;;;;;;;;;;;;;;;15.16;100.00;102095.97;2612793;31;20431;-49
2022/05/14 06:59:48;;;;;;;;;;;;;;;15.01;100.00;102103.63;2612787;36;20593;-51
2022/05/14 07:02:17;;;;;;;;;;;;;;;15.29;100.00;102100.31;2612120;36;20338;-51
2022/05/14 07:07:28;;;;;;;;;;;;;;;15.49;100.00;102106.66;2612548;36;19951;-52
2022/05/14 07:09:56;;;;;;;;;;;;;;;15.37;100.00;102109.50;2612108;36;20061;-55
2022/05/14 07:12:25;;;;;;;;;;;;;;;15.48;100.00;102104.97;2612394;31;19950;-54
2022/05/14 07:14:53;;;;;;;;;;;;;;;15.74;100.00;102121.63;2606749;36;19947;-58
2022/05/14 07:17:21;;;;;;;;;;;;;;;15.64;100.00;102116.16;2612717;36;20744;-49
2022/05/14 07:19:49;;;;;;;;;;;;;;;15.72;100.00;102118.16;2606129;36;20575;-50
2022/05/14 07:22:18;;;;;;;;;;;;;;;15.45;100.00;102121.53;2611919;36;19947;-50
2022/05/14 07:24:49;;;;;;;;;;;;;;;15.47;100.00;102125.78;2612616;36;19985;-50
2022/05/14 07:27:17;;;;;;;;;;;;;;;15.87;100.00;102121.38;2611763;36;19973;-54
2022/05/14 07:29:46;;;;;;;;;;;;;;;15.88;100.00;102126.66;2612391;36;20526;-54
2022/05/14 07:32:15;;;;;;;;;;;;;;;15.98;100.00;102118.53;2611134;36;20674;-52
2022/05/14 07:34:43;;;;;;;;;;;;;;;16.15;100.00;102125.16;2612685;36;19969;-54
2022/05/14 07:37:13;;;;;;;;;;;;;;;16.41;100.00;102125.41;2612433;36;20067;-54
2022/05/14 07:39:49;;;;;;;;;;;;;;;16.74;100.00;102112.38;2613513;36;20363;-54
2022/05/14 07:42:22;;;;;;;;;;;;;;;17.34;100.00;102112.06;2612947;36;20573;-53
2022/05/14 07:44:52;;;;;;;;;;;;;;;16.54;100.00;102116.13;2612640;36;20045;-52
2022/05/14 07:47:20;;;;;;;;;;;;;;;16.76;100.00;102121.22;2612980;36;19974;-49
2022/05/14 07:49:52;;;;;;;;;;;;;;;16.95;100.00;102116.78;2614252;36;20002;-50
2022/05/14 07:52:21;;;;;;;;;;;;;;;17.14;100.00;102115.88;2611826;36;20439;-53
2022/05/14 07:54:49;;;;;;;;;;;;;;;17.25;100.00;102112.94;2612582;36;19954;-53
2022/05/14 07:57:20;;;;;;;;;;;;;;;17.19;100.00;102119.00;2612836;36;20504;-55
2022/05/14 07:59:48;;;;;;;;;;;;;;;16.92;100.00;102117.94;2613352;36;20367;-54
2022/05/14 08:02:26;;;;;;;;;;;;;;;16.95;100.00;102117.63;2611489;36;19969;-52
2022/05/14 08:04:54;;;;;;;;;;;;;;;17.03;100.00;102122.34;2612562;36;19973;-54
2022/05/14 08:07:22;;;;;;;;;;;;;;;17.40;100.00;102121.50;2611928;36;19946;-52
2022/05/14 08:09:50;;;;;;;;;;;;;;;17.50;100.00;102127.75;2612672;36;19946;-52
2022/05/14 08:12:21;;;;;;;;;;;;;;;17.25;100.00;102112.09;2612459;31;20026;-52
2022/05/14 08:14:49;;;;;;;;;;;;;;;17.55;100.00;102113.69;2613506;36;20542;-53
2022/05/14 08:17:17;;;;;;;;;;;;;;;17.65;100.00;102119.06;2612909;36;20508;-57
2022/05/14 08:19:45;;;;;;;;;;;;;;;18.13;100.00;102117.06;2606684;36;20077;-54
2022/05/14 08:24:54;;;;;;;;;;;;;;;17.93;100.00;102117.22;2612691;36;20561;-51
2022/05/14 08:27:24;;;;;;;;;;;;;;;18.47;100.00;102110.91;2612562;36;19958;-54
2022/05/14 08:29:52;;;;;;;;;;;;;;;18.62;100.00;102111.19;2606649;36;20515;-53
2022/05/14 08:32:21;;;;;;;;;;;;;;;18.50;100.00;102108.72;2612604;36;20444;-53
2022/05/14 08:34:50;;;;;;;;;;;;;;;18.53;100.00;102115.72;2613011;31;20440;-50
2022/05/14 08:37:18;;;;;;;;;;;;;;;18.48;100.00;102121.66;2611638;36;19950;-55
2022/05/14 08:39:46;;;;;;;;;;;;;;;18.82;100.00;102123.63;2612488;36;20010;-53
2022/05/14 08:42:14;;;;;;;;;;;;;;;18.81;100.00;102110.97;2610979;36;20463;-54
2022/05/14 08:44:49;;;;;;;;;;;;;;;18.80;100.00;102106.56;2612793;36;20085;-55
2022/05/14 08:47:27;;;;;;;;;;;;;;;18.50;100.00;102107.84;2612636;36;20370;-53
2022/05/14 08:49:57;;;;;;;;;;;;;;;18.81;100.00;102121.91;2612744;36;20466;-55
2022/05/14 08:52:27;;;;;;;;;;;;;;;19.10;100.00;102118.03;2612459;36;19946;-55
2022/05/14 08:54:59;;;;;;;;;;;;;;;19.58;100.00;102113.81;2611553;36;19951;-54
2022/05/14 08:57:31;;;;;;;;;;;;;;;18.99;100.00;102107.38;2612950;36;20400;-55
2022/05/14 09:00:03;;;;;;;;;;;;;;;19.38;100.00;102112.38;2612779;36;20057;-56
2022/05/14 09:02:32;;;;;;;;;;;;;;;19.74;97.32;102107.56;2611941;36;19992;-57
2022/05/14 09:05:02;;;;;;;;;;;;;;;19.25;100.00;102113.66;2611736;36;19964;-54
2022/05/14 09:07:30;;;;;;;;;;;;;;;19.64;96.82;102108.69;2612646;31;19951;-52
2022/05/14 09:09:59;;;;;;;;;;;;;;;19.74;99.90;102112.16;2613170;36;20033;-54
2022/05/14 09:12:28;;;;;;;;;;;;;;;19.76;92.66;102126.50;2613251;36;19974;-53
2022/05/14 09:14:58;;;;;;;;;;;;;;;20.30;84.17;102115.19;2614013;36;19951;-52
2022/05/14 09:17:31;;;;;;;;;;;;;;;20.36;83.62;102108.19;2613710;36;20648;-54
2022/05/14 09:20:00;;;;;;;;;;;;;;;20.38;84.78;102107.00;2613596;31;20370;-55
2022/05/14 09:22:34;;;;;;;;;;;;;;;20.37;87.12;102116.22;2613208;36;19946;-52
2022/05/14 09:25:05;;;;;;;;;;;;;;;20.00;88.86;102119.44;2613168;36;19962;-57
2022/05/14 09:27:37;;;;;;;;;;;;;;;20.19;89.88;102121.84;2613466;36;19951;-54
2022/05/14 09:30:08;;;;;;;;;;;;;;;20.24;93.89;102114.00;2594546;36;19978;-54
2022/05/14 09:32:42;;;;;;;;;;;;;;;19.71;97.67;102113.38;2613246;36;19951;-54
2022/05/14 09:35:13;;;;;;;;;;;;;;;20.22;91.74;102121.50;2612914;36;20481;-54
2022/05/14 09:37:42;;;;;;;;;;;;;;;20.08;81.82;102125.78;2599575;31;19954;-54
2022/05/14 09:40:13;;;;;;;;;;;;;;;19.65;84.74;102119.47;2612172;36;19970;-55
2022/05/14 09:42:44;;;;;;;;;;;;;;;19.39;88.97;102119.53;2613249;36;20030;-52
2022/05/14 09:45:24;;;;;;;;;;;;;;;19.59;99.54;102123.69;2612884;31;19974;-56
2022/05/14 09:47:54;;;;;;;;;;;;;;;18.81;97.54;102135.53;2613849;36;20339;-56
2022/05/14 09:50:24;;;;;;;;;;;;;;;19.26;99.81;102130.91;2612919;31;19966;-56
2022/05/14 09:52:57;;;;;;;;;;;;;;;20.04;92.35;102134.47;2613508;36;19950;-56
2022/05/14 09:55:28;;;;;;;;;;;;;;;20.80;83.12;102132.47;2612944;36;19955;-56
2022/05/14 09:58:00;;;;;;;;;;;;;;;20.54;81.66;102125.28;2613762;36;20458;-53
2022/05/14 10:00:32;;;;;;;;;;;;;;;20.80;77.52;102133.34;2613469;36;19951;-55
2022/05/14 10:03:06;;;;;;;;;;;;;;;20.68;73.89;102136.59;2613344;36;20459;-58
2022/05/14 10:05:40;;;;;;;;;;;;;;;20.83;84.37;102137.59;2612677;36;19999;-53
2022/05/14 10:08:14;;;;;;;;;;;;;;;21.32;79.71;102134.75;2613080;31;20508;-56
2022/05/14 10:10:50;;;;;;;;;;;;;;;21.37;71.07;102131.50;2612959;36;20033;-56
2022/05/14 10:13:22;;;;;;;;;;;;;;;20.95;67.74;102138.09;2613489;36;19950;-57
2022/05/14 10:15:54;;;;;;;;;;;;;;;20.59;72.44;102133.81;2612624;36;19950;-56
2022/05/14 10:18:33;;;;;;;;;;;;;;;20.95;75.70;102128.00;2613581;31;20041;-57
2022/05/14 10:21:06;;;;;;;;;;;;;;;20.97;68.34;102130.59;2612271;36;20065;-56
2022/05/14 10:26:47;;;;;;;;;;;;;;;20.91;72.68;102139.50;2612988;31;19950;-56
2022/05/14 10:29:30;;;;;;;;;;;;;;;21.42;70.70;102131.81;2613562;36;19958;-56
2022/05/14 10:32:01;;;;;;;;;;;;;;;21.94;66.38;102132.28;2613300;31;19954;-55
2022/05/14 10:34:36;;;;;;;;;;;;;;;21.09;66.63;102134.66;2612235;36;19953;-55
2022/05/14 10:37:06;;;;;;;;;;;;;;;21.11;70.02;102131.72;2599455;36;21350;-53
2022/05/14 10:39:40;;;;;;;;;;;;;;;21.69;64.08;102126.94;2613322;36;20442;-51
2022/05/14 10:42:12;;;;;;;;;;;;;;;21.83;63.74;102122.56;2602736;31;19969;-55
2022/05/14 10:44:43;;;;;;;;;;;;;;;22.18;62.47;102136.75;2612259;36;20066;-55
2022/05/14 10:47:13;;;;;;;;;;;;;;;21.42;62.21;102140.03;2612218;36;19947;-53
2022/05/14 10:49:46;;;;;;;;;;;;;;;21.96;64.24;102133.78;2612875;36;19974;-55
2022/05/14 10:52:17;;;;;;;;;;;;;;;22.82;61.69;102130.06;2612338;36;20732;-53
2022/05/14 10:54:46;;;;;;;;;;;;;;;22.98;58.94;102132.66;2612906;36;19966;-53
2022/05/14 10:57:41;;;;;;;;;;;;;;;21.68;59.50;102126.06;2611784;36;19954;-54
2022/05/14 11:00:21;;;;;;;;;;;;;;;22.61;58.98;102144.50;2612100;36;19946;-54
2022/05/14 11:02:57;;;;;;;;;;;;;;;22.32;58.50;102141.47;2612291;36;19951;-54
2022/05/14 11:05:32;;;;;;;;;;;;;;;21.79;60.34;102137.66;2612898;36;20332;-54
2022/05/14 11:08:10;;;;;;;;;;;;;;;20.67;63.92;102134.88;2613359;36;20375;-54
2022/05/14 11:10:39;;;;;;;;;;;;;;;21.18;62.84;102138.22;2612112;36;19953;-57
2022/05/14 11:13:12;;;;;;;;;;;;;;;21.43;61.42;102136.25;2612855;36;19957;-59
2022/05/14 11:15:40;;;;;;;;;;;;;;;21.69;62.75;102133.25;2612837;36;19954;-56
2022/05/14 11:18:10;;;;;;;;;;;;;;;22.46;62.68;102138.97;2610624;36;20069;-58
2022/05/14 11:20:41;;;;;;;;;;;;;;;22.56;59.54;102139.56;2611424;36;19962;-57
2022/05/14 11:23:11;;;;;;;;;;;;;;;23.32;56.40;102123.06;2612905;36;20402;-56
2022/05/14 11:25:40;;;;;;;;;;;;;;;22.42;55.57;102129.41;2612030;31;20398;-55
2022/05/14 11:28:10;;;;;;;;;;;;;;;22.22;56.52;102146.31;2612743;36;19973;-55
2022/05/14 11:30:40;;;;;;;;;;;;;;;22.16;53.88;102141.56;2612445;36;19954;-56
2022/05/14 11:33:19;;;;;;;;;;;;;;;21.94;55.35;102135.03;2612451;36;19951;-54
2022/05/14 11:35:51;;;;;;;;;;;;;;;21.83;57.44;102130.78;2613172;31;20378;-56
2022/05/14 11:38:31;;;;;;;;;;;;;;;22.18;56.25;102136.75;2612473;36;20030;-56
2022/05/14 11:41:01;;;;;;;;;;;;;;;22.42;56.74;102129.41;2601067;36;20038;-57
2022/05/14 11:43:30;;;;;;;;;;;;;;;22.45;57.60;102134.53;2597086;36;20140;-56
2022/05/14 11:46:13;;;;;;;;;;;;;;;22.68;55.41;102124.38;2605729;36;19958;-55
2022/05/14 11:48:45;;;;;;;;;;;;;;;22.55;54.49;102130.47;2612771;36;19951;-53
2022/05/14 11:51:19;;;;;;;;;;;;;;;22.03;54.71;102137.53;2612677;36;19954;-55
2022/05/14 11:53:49;;;;;;;;;;;;;;;21.62;56.17;102126.78;2613149;36;20108;-55
2022/05/14 11:56:21;;;;;;;;;;;;;;;22.34;54.06;102133.91;2612379;36;20077;-54
2022/05/14 11:58:53;;;;;;;;;;;;;;;22.04;56.44;102136.50;2612992;36;19946;-56
2022/05/14 12:01:24;;;;;;;;;;;;;;;22.32;57.88;102138.75;2613057;36;20022;-57
2022/05/14 12:03:54;;;;;;;;;;;;;;;22.83;54.13;102137.28;2613043;36;19950;-54
2022/05/14 12:06:45;;;;;;;;;;;;;;;22.68;55.66;102129.00;2612770;36;20316;-54
2022/05/14 12:09:29;;;;;;;;;;;;;;;22.67;56.28;102133.66;2613239;36;20142;-54
2022/05/14 12:12:01;;;;;;;;;;;;;;;22.83;56.68;102132.63;2612699;36;20037;-57
2022/05/14 12:14:32;;;;;;;;;;;;;;;23.64;54.26;102140.16;2612875;36;19946;-53
2022/05/14 12:17:02;;;;;;;;;;;;;;;23.93;54.93;102132.94;2612866;36;20539;-57
2022/05/14 12:19:31;;;;;;;;;;;;;;;23.15;54.65;102133.38;2612891;36;20030;-55
2022/05/14 12:22:03;;;;;;;;;;;;;;;23.47;55.87;102139.53;2613277;36;20697;-55
2022/05/14 12:24:33;;;;;;;;;;;;;;;22.61;55.00;102134.38;2612540;36;19955;-54
2022/05/14 12:27:01;;;;;;;;;;;;;;;23.36;57.10;102131.75;2612623;36;19954;-54
2022/05/14 12:29:32;;;;;;;;;;;;;;;23.07;57.03;102128.78;2612692;36;19969;-56
2022/05/14 12:34:42;;;;;;;;;;;;;;;22.42;57.68;102133.00;2612968;31;19946;-54
2022/05/14 12:37:19;;;;;;;;;;;;;;;23.25;56.67;102130.34;2613040;36;19958;-55
2022/05/14 12:39:47;;;;;;;;;;;;;;;23.43;55.90;102133.53;2613149;36;20434;-55
2022/05/14 12:42:16;;;;;;;;;;;;;;;24.20;53.40;102122.22;2612544;31;20765;-56
2022/05/14 12:44:46;;;;;;;;;;;;;;;23.82;54.33;102130.63;2600806;36;19950;-56
2022/05/14 12:47:22;;;;;;;;;;;;;;;23.96;54.33;102129.78;2594798;36;19950;-56
2022/05/14 12:49:50;;;;;;;;;;;;;;;23.60;52.09;102127.84;2612543;36;20478;-56
2022/05/14 12:52:23;;;;;;;;;;;;;;;23.89;53.68;102126.09;2613025;31;20443;-55
2022/05/14 12:54:53;;;;;;;;;;;;;;;23.99;52.12;102126.66;2612438;36;20470;-53
2022/05/14 12:57:22;;;;;;;;;;;;;;;23.42;52.17;102118.13;2612391;36;19974;-56
2022/05/14 12:59:50;;;;;;;;;;;;;;;23.75;50.41;102114.09;2612976;31;20519;-56
2022/05/14 13:02:20;;;;;;;;;;;;;;;24.11;51.18;102113.22;2612548;36;19946;-56
2022/05/14 13:04:52;;;;;;;;;;;;;;;24.87;49.76;102111.78;2612294;36;19953;-55
2022/05/14 13:07:23;;;;;;;;;;;;;;;24.71;51.34;102111.06;2612062;31;20112;-57
2022/05/14 13:09:52;;;;;;;;;;;;;;;25.28;49.49;102111.84;2612590;31;19946;-57
2022/05/14 13:12:22;;;;;;;;;;;;;;;24.97;47.27;102102.13;2612165;36;20037;-53